Time;durP1;ratioP1;P1;durP2;ratioP2;P2;SDS_P1;SDS_P2;PMS_P1;PMS_P2;Temp;Humidity;BMP_temperature;BMP_pressure;BME280_temperature;BME280_humidity;BME280_pressure;Samples;Min_cycle;Max_cycle;Signal;HPM_P1;HPM_P2
2023/12/15 00:00:00;;;;;;;4.80;4.20;;;7.40;99.90;;;;;;5117551;28;20421;-40
2023/12/15 00:02:26;;;;;;;5.40;4.33;;;7.20;99.90;;;;;;5117406;28;20202;-39
2023/12/15 00:04:52;;;;;;;6.07;4.40;;;7.10;99.90;;;;;;5117030;28;20472;-41
2023/12/15 00:07:17;;;;;;;6.33;4.73;;;7.00;99.90;;;;;;5118404;28;20515;-40
2023/12/15 00:09:43;;;;;;;4.80;4.30;;;7.00;1.00;;;;;;5101196;28;20183;-42
2023/12/15 00:12:09;;;;;;;5.37;4.57;;;6.90;1.00;;;;;;5118431;28;20469;-43
2023/12/15 00:14:34;;;;;;;7.00;4.97;;;6.90;1.00;;;;;;5117671;28;20211;-40
2023/12/15 00:17:00;;;;;;;5.73;5.10;;;6.80;1.00;;;;;;5117424;28;20176;-40
2023/12/15 00:19:25;;;;;;;6.07;4.13;;;6.80;1.00;;;;;;5117707;28;20180;-42
2023/12/15 00:21:51;;;;;;;5.43;4.60;;;6.70;1.00;;;;;;5118419;28;20186;-40
2023/12/15 00:24:16;;;;;;;6.33;4.40;;;6.70;1.00;;;;;;5117132;28;20541;-42
2023/12/15 00:26:42;;;;;;;4.90;4.07;;;6.70;1.00;;;;;;5118008;28;20666;-41
2023/12/15 00:29:08;;;;;;;4.20;3.60;;;6.70;1.00;;;;;;5117427;28;20199;-44
2023/12/15 00:31:33;;;;;;;4.00;3.40;;;6.60;1.00;;;;;;5116791;28;20515;-39
2023/12/15 00:33:59;;;;;;;4.00;3.27;;;6.60;1.00;;;;;;5117626;28;20236;-44
2023/12/15 00:36:24;;;;;;;3.50;2.80;;;6.60;1.00;;;;;;5117740;28;20164;-40
2023/12/15 00:38:50;;;;;;;3.83;3.17;;;6.50;1.00;;;;;;5117407;28;20562;-40
2023/12/15 00:41:16;;;;;;;4.63;3.43;;;6.50;1.00;;;;;;5117633;28;20228;-40
2023/12/15 00:43:41;;;;;;;4.10;3.23;;;6.50;1.00;;;;;;5098772;28;20293;-40
2023/12/15 00:46:07;;;;;;;4.00;3.20;;;6.50;1.00;;;;;;5117732;28;20168;-42
2023/12/15 00:48:33;;;;;;;3.90;3.43;;;6.50;1.00;;;;;;5117000;28;20627;-43
2023/12/15 00:50:58;;;;;;;4.70;3.83;;;6.50;1.00;;;;;;5117901;28;20183;-40
2023/12/15 00:53:24;;;;;;;4.00;3.60;;;6.50;1.00;;;;;;5116296;28;20179;-40
2023/12/15 00:55:49;;;;;;;4.23;3.73;;;6.50;1.00;;;;;;5115342;28;20168;-40
2023/12/15 00:58:15;;;;;;;5.30;4.13;;;6.50;1.00;;;;;;5116305;28;20422;-39
2023/12/15 01:00:41;;;;;;;4.63;3.90;;;6.40;1.00;;;;;;5115864;28;20163;-39
2023/12/15 01:03:06;;;;;;;4.43;3.20;;;6.50;1.00;;;;;;5115935;28;20233;-41
2023/12/15 01:05:32;;;;;;;2.97;2.40;;;6.40;1.00;;;;;;5116594;28;20266;-40
2023/12/15 01:07:57;;;;;;;2.83;2.47;;;6.40;1.00;;;;;;5116856;28;20191;-40
2023/12/15 01:10:23;;;;;;;3.30;2.70;;;6.30;1.00;;;;;;5116714;28;20222;-40
2023/12/15 01:12:48;;;;;;;4.60;3.70;;;6.30;1.00;;;;;;5117164;28;20211;-42
2023/12/15 01:15:14;;;;;;;4.37;3.03;;;6.30;1.00;;;;;;5117854;28;20194;-40
2023/12/15 01:17:40;;;;;;;3.70;2.80;;;6.20;1.00;;;;;;5116590;28;20201;-40
2023/12/15 01:20:06;;;;;;;3.60;3.07;;;6.20;1.00;;;;;;5116071;28;20245;-40
2023/12/15 01:22:31;;;;;;;3.90;2.90;;;6.20;1.00;;;;;;5115828;28;20477;-41
2023/12/15 01:24:57;;;;;;;4.13;3.00;;;6.20;1.00;;;;;;5116167;28;20440;-41
2023/12/15 01:27:23;;;;;;;3.60;2.90;;;6.20;1.00;;;;;;5097857;28;20217;-41
2023/12/15 01:29:48;;;;;;;3.83;3.40;;;6.20;1.00;;;;;;5115529;28;20172;-41
2023/12/15 01:32:14;;;;;;;4.73;3.17;;;6.20;1.00;;;;;;5115806;28;20242;-41
2023/12/15 01:34:40;;;;;;;5.83;4.00;;;6.20;1.00;;;;;;5115714;28;20514;-42
2023/12/15 01:37:07;;;;;;;4.67;3.63;;;6.20;1.00;;;;;;5116157;28;20176;-40
2023/12/15 01:39:32;;;;;;;4.40;3.70;;;6.20;1.00;;;;;;5116623;28;20228;-40
2023/12/15 01:41:58;;;;;;;6.60;4.13;;;6.20;1.00;;;;;;5116094;28;20508;-39
2023/12/15 01:44:24;;;;;;;4.03;3.33;;;6.20;1.00;;;;;;5116384;28;20565;-39
2023/12/15 01:46:49;;;;;;;4.70;4.20;;;6.20;1.00;;;;;;5116414;28;20272;-39
2023/12/15 01:49:15;;;;;;;5.07;4.20;;;6.20;1.00;;;;;;5082241;28;20457;-38
2023/12/15 01:51:41;;;;;;;5.53;3.70;;;6.20;1.00;;;;;;5116950;28;20199;-40
2023/12/15 01:54:07;;;;;;;4.43;3.50;;;6.20;1.00;;;;;;5117199;28;20522;-40
2023/12/15 01:56:32;;;;;;;5.20;3.67;;;6.20;1.00;;;;;;5099469;28;20464;-40
2023/12/15 01:58:58;;;;;;;5.20;4.10;;;6.20;1.00;;;;;;5081860;28;20373;-39
2023/12/15 02:01:24;;;;;;;4.53;3.73;;;6.20;1.00;;;;;;5116362;28;20184;-40
2023/12/15 02:03:49;;;;;;;4.90;3.80;;;6.20;1.00;;;;;;5098757;28;20224;-41
2023/12/15 02:06:15;;;;;;;4.93;4.10;;;6.20;1.00;;;;;;5116955;28;20222;-42
2023/12/15 02:08:44;;;;;;;4.20;3.70;;;6.20;1.00;;;;;;5117325;28;20466;-41
2023/12/15 02:11:10;;;;;;;4.97;3.90;;;6.30;1.00;;;;;;5098843;28;20318;-39
2023/12/15 02:13:35;;;;;;;5.03;4.20;;;6.20;1.00;;;;;;5118266;28;20453;-41
2023/12/15 02:16:01;;;;;;;4.93;3.63;;;6.30;1.00;;;;;;5120533;28;20262;-41
2023/12/15 02:18:27;;;;;;;5.20;4.00;;;6.30;1.00;;;;;;5120533;28;20215;-39
2023/12/15 02:20:52;;;;;;;3.83;3.43;;;6.30;1.00;;;;;;5120555;28;20176;-39
2023/12/15 02:23:18;;;;;;;5.00;3.70;;;6.30;1.00;;;;;;5102629;28;20179;-39
2023/12/15 02:25:43;;;;;;;5.53;4.30;;;6.20;1.00;;;;;;5120367;28;20183;-42
2023/12/15 02:28:09;;;;;;;4.23;3.40;;;6.20;1.00;;;;;;5119860;28;20228;-41
2023/12/15 02:30:35;;;;;;;4.73;4.23;;;6.20;1.00;;;;;;5119830;28;20168;-40
2023/12/15 02:33:00;;;;;;;4.83;3.90;;;6.20;1.00;;;;;;5101708;28;20210;-41
2023/12/15 02:35:27;;;;;;;5.43;4.40;;;6.20;1.00;;;;;;5120088;28;20187;-41
2023/12/15 02:37:52;;;;;;;3.63;3.30;;;6.20;1.00;;;;;;5101778;28;20885;-43
2023/12/15 02:40:18;;;;;;;4.40;3.70;;;6.20;1.00;;;;;;5120006;28;20249;-40
2023/12/15 02:42:43;;;;;;;5.63;4.33;;;6.20;1.00;;;;;;5119137;28;20168;-40
2023/12/15 02:45:09;;;;;;;4.57;3.93;;;6.20;1.00;;;;;;5084162;28;20263;-40
2023/12/15 02:47:35;;;;;;;4.03;3.50;;;6.20;1.00;;;;;;5119581;28;20215;-42
2023/12/15 02:50:01;;;;;;;6.10;4.37;;;6.20;1.00;;;;;;5119671;28;20524;-40
2023/12/15 02:52:27;;;;;;;4.30;3.90;;;6.20;1.00;;;;;;5119661;28;20481;-40
2023/12/15 02:54:52;;;;;;;6.30;4.50;;;6.20;1.00;;;;;;5101435;28;20405;-39
2023/12/15 02:57:21;;;;;;;5.30;4.27;;;6.20;1.00;;;;;;5119604;28;20164;-40
2023/12/15 02:59:46;;;;;;;5.40;4.37;;;6.20;1.00;;;;;;5118929;28;20538;-42
2023/12/15 03:02:12;;;;;;;8.57;5.13;;;6.10;1.00;;;;;;5119572;28;20425;-39
2023/12/15 03:04:38;;;;;;;5.07;4.50;;;6.10;1.00;;;;;;5119462;28;20243;-40
2023/12/15 03:07:03;;;;;;;5.07;4.50;;;6.10;1.00;;;;;;5119552;28;20571;-39
2023/12/15 03:09:29;;;;;;;5.87;5.20;;;6.10;1.00;;;;;;5119574;28;20183;-40
2023/12/15 03:11:54;;;;;;;7.23;5.07;;;6.10;1.00;;;;;;5119151;28;20208;-44
2023/12/15 03:14:20;;;;;;;4.60;4.17;;;6.10;1.00;;;;;;5119246;28;20242;-41
2023/12/15 03:16:46;;;;;;;6.30;5.20;;;6.10;1.00;;;;;;5117678;28;20168;-40
2023/12/15 03:19:12;;;;;;;6.80;5.50;;;6.10;1.00;;;;;;5118941;28;20179;-39
2023/12/15 03:21:38;;;;;;;5.07;4.57;;;6.10;1.00;;;;;;5118838;28;20195;-41
2023/12/15 03:24:04;;;;;;;7.20;5.60;;;6.10;1.00;;;;;;5118166;28;20429;-42
2023/12/15 03:26:29;;;;;;;6.47;5.87;;;6.10;1.00;;;;;;5118823;28;20172;-41
2023/12/15 03:28:55;;;;;;;7.97;4.73;;;6.10;1.00;;;;;;5118723;28;20432;-39
2023/12/15 03:31:21;;;;;;;6.30;5.30;;;6.10;1.00;;;;;;5118775;28;20255;-42
2023/12/15 03:33:46;;;;;;;5.63;5.07;;;6.10;1.00;;;;;;5118838;28;20572;-39
2023/12/15 03:36:12;;;;;;;6.90;5.57;;;6.10;1.00;;;;;;5118925;28;20505;-41
2023/12/15 03:38:38;;;;;;;6.67;4.73;;;6.10;1.00;;;;;;5100666;28;20180;-39
2023/12/15 03:41:04;;;;;;;5.40;4.90;;;6.10;1.00;;;;;;5118834;28;20245;-40
2023/12/15 03:43:29;;;;;;;6.40;5.70;;;6.10;1.00;;;;;;5118167;28;20175;-40
2023/12/15 03:45:55;;;;;;;6.60;5.63;;;6.20;1.00;;;;;;5116661;28;20696;-40
2023/12/15 03:48:20;;;;;;;5.20;4.70;;;6.10;1.00;;;;;;5117720;28;20179;-39
2023/12/15 03:50:46;;;;;;;6.47;5.50;;;6.10;1.00;;;;;;5116758;28;20191;-39
2023/12/15 03:53:12;;;;;;;6.43;5.83;;;6.10;1.00;;;;;;5116201;28;20211;-41
2023/12/15 03:55:37;;;;;;;7.30;5.97;;;6.10;1.00;;;;;;5098679;28;20553;-41
2023/12/15 03:58:03;;;;;;;5.93;4.90;;;6.10;1.00;;;;;;5116389;28;20180;-40
2023/12/15 04:00:29;;;;;;;5.60;5.00;;;6.10;1.00;;;;;;5098443;28;20175;-40
2023/12/15 04:02:54;;;;;;;5.60;5.00;;;6.10;1.00;;;;;;5081152;28;20180;-42
2023/12/15 04:05:20;;;;;;;6.50;5.80;;;6.10;1.00;;;;;;5116191;28;20716;-41
2023/12/15 04:07:46;;;;;;;6.60;5.70;;;6.10;1.00;;;;;;5118585;28;20190;-41
2023/12/15 04:10:12;;;;;;;7.40;5.10;;;6.10;1.00;;;;;;5118094;28;20430;-40
2023/12/15 04:12:37;;;;;;;6.20;5.60;;;6.10;1.00;;;;;;5117955;28;20211;-40
2023/12/15 04:15:03;;;;;;;6.70;4.90;;;6.10;1.00;;;;;;5118091;28;20207;-43
2023/12/15 04:17:29;;;;;;;7.73;6.03;;;6.10;1.00;;;;;;5118151;28;20168;-39
2023/12/15 04:19:55;;;;;;;6.70;6.00;;;6.10;1.00;;;;;;5115752;28;20410;-42
2023/12/15 04:22:22;;;;;;;5.70;4.80;;;6.10;1.00;;;;;;5115562;28;20258;-40
2023/12/15 04:24:48;;;;;;;6.10;5.50;;;6.10;1.00;;;;;;5098635;28;20168;-41
2023/12/15 04:27:13;;;;;;;6.80;6.00;;;6.10;1.00;;;;;;5116205;28;20454;-39
2023/12/15 04:29:39;;;;;;;8.33;6.70;;;6.20;1.00;;;;;;5116770;28;20510;-39
2023/12/15 04:32:05;;;;;;;7.60;6.00;;;6.20;1.00;;;;;;5115840;28;20206;-40
2023/12/15 04:34:33;;;;;;;6.77;5.43;;;6.20;1.00;;;;;;5116344;28;20168;-42
2023/12/15 04:36:59;;;;;;;6.90;5.30;;;6.20;1.00;;;;;;5099295;28;20447;-41
2023/12/15 04:39:24;;;;;;;6.20;5.07;;;6.20;1.00;;;;;;5116659;28;20422;-41
2023/12/15 04:41:50;;;;;;;6.70;6.00;;;6.20;1.00;;;;;;5098557;28;20285;-40
2023/12/15 04:44:15;;;;;;;6.70;5.93;;;6.20;1.00;;;;;;5114817;28;20190;-40
2023/12/15 04:46:41;;;;;;;6.30;4.90;;;6.20;1.00;;;;;;5113898;28;20183;-41
2023/12/15 04:49:07;;;;;;;5.33;4.83;;;6.20;1.00;;;;;;5114094;28;20565;-39
2023/12/15 04:51:32;;;;;;;6.20;4.90;;;6.20;99.90;;;;;;5113324;28;20318;-40
2023/12/15 04:53:58;;;;;;;6.37;5.77;;;6.20;99.90;;;;;;5111910;28;20242;-39
2023/12/15 04:56:25;;;;;;;6.97;5.60;;;6.20;99.90;;;;;;5111881;28;20241;-41
2023/12/15 04:58:51;;;;;;;5.53;4.90;;;6.20;99.90;;;;;;5112750;28;20409;-41
2023/12/15 05:01:17;;;;;;;5.20;4.70;;;6.20;99.90;;;;;;5115174;28;20812;-43
2023/12/15 05:03:44;;;;;;;7.50;5.30;;;6.20;99.90;;;;;;5115977;28;20570;-41
2023/12/15 05:06:20;;;;;;;7.47;5.00;;;6.20;99.90;;;;;;5115500;28;20421;-43
2023/12/15 05:08:50;;;;;;;5.40;4.90;;;6.20;1.00;;;;;;5115646;28;20734;-42
2023/12/15 05:11:17;;;;;;;5.77;4.87;;;6.20;1.00;;;;;;5115738;28;20573;-42
2023/12/15 05:13:43;;;;;;;6.20;5.33;;;6.20;1.00;;;;;;5116441;28;20790;-41
2023/12/15 05:16:08;;;;;;;7.13;5.60;;;6.20;1.00;;;;;;5097775;28;20480;-41
2023/12/15 05:18:34;;;;;;;6.10;4.97;;;6.20;99.90;;;;;;5116499;28;20176;-42
2023/12/15 05:21:00;;;;;;;7.03;6.20;;;6.20;99.90;;;;;;5097552;28;20324;-42
2023/12/15 05:23:26;;;;;;;5.10;4.60;;;6.20;99.90;;;;;;5080686;28;20917;-42
2023/12/15 05:25:53;;;;;;;5.90;5.23;;;6.20;99.90;;;;;;5113946;28;20506;-41
2023/12/15 05:28:18;;;;;;;7.30;5.80;;;6.20;99.90;;;;;;5113743;28;20417;-41
2023/12/15 05:30:44;;;;;;;6.70;5.60;;;6.20;99.90;;;;;;5113060;28;20566;-40
2023/12/15 05:33:10;;;;;;;6.50;5.73;;;6.10;99.90;;;;;;5113992;28;20207;-42
2023/12/15 05:35:35;;;;;;;8.83;5.77;;;6.10;99.90;;;;;;5111576;28;20274;-42
2023/12/15 05:38:02;;;;;;;4.73;4.30;;;6.20;99.90;;;;;;5112127;28;20168;-40
2023/12/15 05:40:28;;;;;;;6.93;5.00;;;6.20;99.90;;;;;;5112216;28;20171;-39
2023/12/15 05:42:53;;;;;;;6.10;4.80;;;6.20;99.90;;;;;;5113784;28;20460;-41
2023/12/15 05:45:19;;;;;;;5.63;5.03;;;6.20;99.90;;;;;;5113216;28;20433;-42
2023/12/15 05:47:45;;;;;;;6.37;4.83;;;6.10;99.90;;;;;;5114081;28;20307;-41
2023/12/15 05:50:11;;;;;;;6.00;5.40;;;6.10;99.90;;;;;;5119252;28;20168;-41
2023/12/15 05:52:37;;;;;;;6.23;4.60;;;6.10;99.90;;;;;;5116784;28;20267;-43
2023/12/15 05:55:03;;;;;;;6.20;5.47;;;6.10;99.90;;;;;;5117645;28;20429;-40
2023/12/15 05:57:28;;;;;;;6.70;5.30;;;6.10;99.90;;;;;;5117581;28;20709;-42
2023/12/15 05:59:54;;;;;;;5.70;5.10;;;6.10;99.90;;;;;;5118563;28;20426;-40
2023/12/15 06:02:20;;;;;;;6.13;5.30;;;6.10;99.90;;;;;;5099208;28;20176;-41
2023/12/15 06:04:47;;;;;;;5.90;5.33;;;6.10;99.90;;;;;;5079207;28;20299;-41
2023/12/15 06:07:19;;;;;;;6.50;5.20;;;6.10;99.90;;;;;;5096826;28;20432;-44
2023/12/15 06:09:45;;;;;;;7.13;5.30;;;6.10;99.90;;;;;;5092277;28;20863;-40
2023/12/15 06:12:11;;;;;;;6.10;5.10;;;6.10;99.90;;;;;;5090413;28;20569;-40
2023/12/15 06:14:39;;;;;;;7.77;5.53;;;6.10;99.90;;;;;;5093903;28;20563;-40
2023/12/15 06:17:06;;;;;;;7.47;6.50;;;6.10;99.90;;;;;;5094997;28;20208;-40
2023/12/15 06:19:33;;;;;;;8.00;5.50;;;6.10;99.90;;;;;;5094882;28;20483;-40
2023/12/15 06:21:59;;;;;;;5.70;4.90;;;6.10;99.90;;;;;;5092353;28;20172;-40
2023/12/15 06:24:24;;;;;;;5.80;5.00;;;6.10;99.90;;;;;;5093362;28;20684;-42
2023/12/15 06:26:50;;;;;;;6.60;5.57;;;6.10;99.90;;;;;;5094217;28;20422;-43
2023/12/15 06:29:16;;;;;;;6.20;5.43;;;6.10;99.90;;;;;;5094848;28;20445;-39
2023/12/15 06:31:48;;;;;;;6.00;4.97;;;6.10;99.90;;;;;;5094462;28;20208;-41
2023/12/15 06:34:14;;;;;;;6.63;5.33;;;6.10;99.90;;;;;;5096371;28;20422;-41
2023/12/15 06:36:40;;;;;;;6.70;5.37;;;6.10;99.90;;;;;;5096810;28;20449;-40
2023/12/15 06:39:06;;;;;;;6.43;5.50;;;6.10;99.90;;;;;;5095794;28;20425;-41
2023/12/15 06:41:33;;;;;;;5.17;4.67;;;6.20;99.90;;;;;;5095256;28;20446;-41
2023/12/15 06:44:02;;;;;;;7.33;5.93;;;6.10;99.90;;;;;;5078610;28;20173;-40
2023/12/15 06:46:28;;;;;;;5.90;5.27;;;6.20;99.90;;;;;;5094790;28;20518;-41
2023/12/15 06:48:53;;;;;;;6.30;5.37;;;6.20;99.90;;;;;;5095142;28;20664;-41
2023/12/15 06:51:19;;;;;;;6.70;5.40;;;6.20;99.90;;;;;;5094660;28;20204;-40
2023/12/15 06:53:45;;;;;;;5.47;4.93;;;6.20;99.90;;;;;;5094630;28;20176;-41
2023/12/15 06:56:10;;;;;;;5.80;5.27;;;6.20;99.90;;;;;;5095605;28;20462;-42
2023/12/15 06:58:36;;;;;;;9.90;5.70;;;6.20;99.90;;;;;;5094302;28;20169;-43
2023/12/15 07:01:01;;;;;;;8.50;5.37;;;6.20;99.90;;;;;;5093616;28;20200;-40
2023/12/15 07:03:28;;;;;;;6.03;5.43;;;6.30;99.90;;;;;;5094704;28;20590;-41
2023/12/15 07:05:54;;;;;;;5.20;4.70;;;6.20;99.90;;;;;;5095249;28;20185;-41
2023/12/15 07:08:19;;;;;;;6.53;5.83;;;6.20;99.90;;;;;;5095975;28;20513;-43
2023/12/15 07:10:45;;;;;;;6.40;5.67;;;6.20;99.90;;;;;;5061041;28;20176;-42
2023/12/15 07:13:11;;;;;;;6.73;5.40;;;6.20;99.90;;;;;;5095627;28;20210;-41
2023/12/15 07:15:37;;;;;;;6.40;5.70;;;6.20;99.90;;;;;;5096029;28;20483;-41
2023/12/15 07:18:02;;;;;;;6.10;5.23;;;6.20;99.90;;;;;;5095087;28;20209;-41
2023/12/15 07:20:28;;;;;;;7.50;6.77;;;6.20;99.90;;;;;;5096758;28;20211;-40
2023/12/15 07:22:53;;;;;;;6.50;5.90;;;6.20;99.90;;;;;;5096596;28;20173;-40
2023/12/15 07:25:19;;;;;;;6.57;5.70;;;6.20;99.90;;;;;;5095471;28;20574;-41
2023/12/15 07:27:45;;;;;;;6.77;6.07;;;6.20;99.90;;;;;;5096062;28;20554;-42
2023/12/15 07:30:12;;;;;;;8.90;6.03;;;6.20;99.90;;;;;;5097405;28;20295;-40
2023/12/15 07:32:37;;;;;;;9.13;5.50;;;6.20;99.90;;;;;;5096485;28;20502;-41
2023/12/15 07:35:05;;;;;;;6.33;5.73;;;6.20;99.90;;;;;;5094868;28;20429;-42
2023/12/15 07:37:31;;;;;;;7.23;5.97;;;6.20;99.90;;;;;;5094733;28;20180;-40
2023/12/15 07:39:56;;;;;;;6.93;5.67;;;6.20;99.90;;;;;;5077220;28;20523;-42
2023/12/15 07:42:22;;;;;;;8.00;6.43;;;6.30;99.90;;;;;;5094365;28;20246;-42
2023/12/15 07:44:47;;;;;;;8.10;6.40;;;6.30;99.90;;;;;;5095937;28;20673;-42
2023/12/15 07:47:13;;;;;;;7.70;7.00;;;6.30;99.90;;;;;;5076211;28;20176;-43
2023/12/15 07:49:38;;;;;;;7.53;6.73;;;6.40;99.90;;;;;;5058487;28;20177;-45
2023/12/15 07:52:04;;;;;;;7.57;6.37;;;6.40;99.90;;;;;;5093184;28;20212;-41
2023/12/15 07:54:30;;;;;;;6.97;6.17;;;6.40;99.90;;;;;;5093202;28;20173;-42
2023/12/15 07:56:56;;;;;;;7.80;6.80;;;6.40;99.90;;;;;;5094079;28;20173;-40
2023/12/15 07:59:22;;;;;;;6.83;6.13;;;6.40;99.90;;;;;;5095556;28;20271;-43
2023/12/15 08:01:51;;;;;;;7.87;6.53;;;6.40;99.90;;;;;;5094281;28;20509;-41
2023/12/15 08:04:18;;;;;;;7.77;6.20;;;6.40;99.90;;;;;;5077169;28;20232;-40
2023/12/15 08:06:44;;;;;;;8.30;6.73;;;6.50;99.90;;;;;;5075864;28;20490;-43
2023/12/15 08:09:10;;;;;;;9.10;6.70;;;6.50;99.90;;;;;;5077199;28;20442;-40
2023/12/15 08:11:35;;;;;;;7.77;6.50;;;6.50;99.90;;;;;;5093506;28;20913;-42
2023/12/15 08:14:03;;;;;;;7.90;6.53;;;6.50;99.90;;;;;;5076622;28;20230;-40
2023/12/15 08:16:31;;;;;;;8.03;6.90;;;6.50;99.90;;;;;;5076259;28;20447;-40
2023/12/15 08:18:58;;;;;;;10.27;7.23;;;6.50;99.90;;;;;;5059493;28;20481;-42
2023/12/15 08:21:23;;;;;;;12.17;7.00;;;6.60;99.90;;;;;;5076460;28;20517;-43
2023/12/15 08:23:49;;;;;;;8.53;7.60;;;6.60;99.90;;;;;;5092980;28;20572;-41
2023/12/15 08:26:23;;;;;;;10.83;7.97;;;6.60;99.90;;;;;;5094479;28;20491;-40
2023/12/15 08:28:49;;;;;;;9.47;8.47;;;6.60;99.90;;;;;;5075970;28;20521;-40
2023/12/15 08:31:15;;;;;;;8.50;7.60;;;6.70;99.90;;;;;;5060404;28;20469;-40
2023/12/15 08:33:42;;;;;;;10.70;8.20;;;6.70;99.90;;;;;;5095621;28;20446;-42
2023/12/15 08:36:08;;;;;;;8.37;7.50;;;6.80;99.90;;;;;;5058338;28;20430;-40
2023/12/15 08:38:35;;;;;;;10.47;8.87;;;6.80;99.90;;;;;;5093496;28;20496;-41
2023/12/15 08:41:02;;;;;;;11.97;9.60;;;6.80;99.90;;;;;;5074679;28;20708;-42
2023/12/15 08:43:28;;;;;;;10.73;8.93;;;6.90;99.90;;;;;;5076471;28;20847;-41
2023/12/15 08:45:54;;;;;;;11.60;8.93;;;6.90;99.90;;;;;;5060370;28;20449;-40
2023/12/15 08:48:19;;;;;;;9.80;8.60;;;7.00;99.90;;;;;;5094845;28;20427;-40
2023/12/15 08:50:45;;;;;;;11.40;8.50;;;7.00;99.90;;;;;;5077362;28;20180;-40
2023/12/15 08:53:12;;;;;;;9.83;8.83;;;7.00;99.90;;;;;;5075330;28;20230;-40
2023/12/15 08:55:38;;;;;;;15.23;9.60;;;7.00;99.90;;;;;;5094003;28;20236;-40
2023/12/15 08:58:03;;;;;;;10.87;9.70;;;7.10;99.90;;;;;;5093740;28;20516;-42
2023/12/15 09:00:29;;;;;;;10.77;9.10;;;7.20;99.90;;;;;;5095395;28;20559;-40
2023/12/15 09:02:54;;;;;;;11.03;9.87;;;7.40;99.90;;;;;;5094826;28;20192;-40
2023/12/15 09:05:23;;;;;;;10.60;8.83;;;7.70;99.90;;;;;;5091932;28;20196;-42
2023/12/15 09:07:50;;;;;;;11.40;9.47;;;7.90;99.90;;;;;;5094293;28;20519;-41
2023/12/15 09:10:17;;;;;;;10.97;9.97;;;8.20;94.20;;;;;;5094745;28;20418;-42
2023/12/15 09:12:42;;;;;;;11.80;9.87;;;8.50;1.00;;;;;;5094023;28;20879;-42
2023/12/15 09:15:08;;;;;;;11.87;9.33;;;8.70;99.90;;;;;;5093398;28;20509;-41
2023/12/15 09:17:33;;;;;;;10.97;9.87;;;8.70;99.90;;;;;;5076103;28;20408;-39
2023/12/15 09:19:59;;;;;;;13.93;10.23;;;8.80;11.90;;;;;;5095020;28;20205;-40
2023/12/15 09:22:25;;;;;;;9.60;8.60;;;8.80;1.00;;;;;;5094162;28;20195;-41
2023/12/15 09:24:51;;;;;;;11.50;8.37;;;8.90;1.00;;;;;;5099461;28;20609;-42
2023/12/15 09:27:17;;;;;;;11.33;9.33;;;8.90;1.00;;;;;;5081027;28;20466;-40
2023/12/15 09:29:43;;;;;;;9.77;4.77;;;8.90;1.00;;;;;;5081011;28;20422;-44
2023/12/15 09:32:08;;;;;;;9.80;3.83;;;9.20;99.90;;;;;;5098880;28;20566;-44
2023/12/15 09:34:35;;;;;;;6.23;3.80;;;11.70;1.00;;;;;;5100118;28;20180;-42
2023/12/15 09:37:01;;;;;;;5.03;3.73;;;12.70;1.00;;;;;;5063587;28;20249;-42
2023/12/15 09:39:26;;;;;;;6.50;3.20;;;13.70;1.00;;;;;;5098431;28;20426;-42
2023/12/15 09:41:52;;;;;;;4.73;4.17;;;14.40;99.90;;;;;;5102092;28;20184;-42
2023/12/15 09:44:19;;;;;;;6.30;4.87;;;14.90;34.80;;;;;;5106426;28;20191;-43
2023/12/15 09:46:44;;;;;;;4.50;3.87;;;15.20;99.90;;;;;;5108297;28;20171;-41
2023/12/15 09:49:16;;;;;;;4.50;3.70;;;15.30;99.90;;;;;;5070685;28;20432;-42
2023/12/15 09:51:52;;;;;;;5.83;4.20;;;15.40;1.00;;;;;;5105538;28;20576;-41
2023/12/15 09:54:19;;;;;;;7.83;4.10;;;15.60;99.90;;;;;;5106896;28;20444;-42
2023/12/15 09:56:46;;;;;;;5.97;3.97;;;15.80;23.70;;;;;;5100361;28;20460;-42
2023/12/15 09:59:12;;;;;;;7.37;6.40;;;16.00;99.90;;;;;;5085503;28;20883;-40
2023/12/15 10:01:38;;;;;;;7.73;6.93;;;15.90;99.90;;;;;;5109648;28;20417;-42
2023/12/15 10:04:05;;;;;;;8.63;7.53;;;15.50;1.00;;;;;;5109795;28;20468;-39
2023/12/15 10:06:34;;;;;;;8.47;7.73;;;15.00;99.90;;;;;;5087257;28;20288;-39
2023/12/15 10:08:59;;;;;;;8.23;7.53;;;14.60;99.90;;;;;;5081301;28;20521;-40
2023/12/15 10:11:27;;;;;;;14.33;8.63;;;14.40;99.90;;;;;;5099610;28;20809;-40
2023/12/15 10:13:53;;;;;;;9.20;8.30;;;14.10;99.90;;;;;;5099722;28;20198;-40
2023/12/15 10:16:19;;;;;;;8.70;7.90;;;14.00;99.90;;;;;;5099364;28;20417;-41
2023/12/15 10:18:44;;;;;;;8.63;7.73;;;13.90;99.90;;;;;;5081623;28;20680;-41
2023/12/15 10:21:10;;;;;;;8.67;7.77;;;13.70;99.90;;;;;;5098882;28;20172;-41
2023/12/15 10:23:36;;;;;;;7.97;7.17;;;13.40;99.90;;;;;;5080135;28;20179;-40
2023/12/15 10:26:05;;;;;;;7.33;6.63;;;13.20;99.90;;;;;;5098019;28;20176;-42
2023/12/15 10:28:38;;;;;;;8.13;7.33;;;12.90;99.90;;;;;;5097497;28;20189;-40
2023/12/15 10:31:05;;;;;;;7.30;6.60;;;12.60;99.90;;;;;;5097452;28;20418;-40
2023/12/15 10:33:33;;;;;;;7.53;6.83;;;12.50;99.90;;;;;;5097553;28;20724;-41
2023/12/15 10:36:00;;;;;;;8.10;7.30;;;12.30;99.90;;;;;;5077875;28;20571;-40
2023/12/15 10:38:27;;;;;;;8.77;7.73;;;12.10;1.00;;;;;;5096617;28;20858;-39
2023/12/15 10:40:53;;;;;;;8.23;6.43;;;11.90;1.00;;;;;;5077452;28;20489;-40
2023/12/15 10:43:21;;;;;;;7.90;7.20;;;11.60;1.00;;;;;;5076068;28;20485;-41
2023/12/15 10:45:46;;;;;;;8.33;7.47;;;11.40;76.20;;;;;;5077275;28;20450;-42
2023/12/15 10:48:12;;;;;;;7.97;7.20;;;11.20;99.90;;;;;;5078835;28;20591;-44
2023/12/15 10:50:41;;;;;;;9.73;6.70;;;11.00;1.00;;;;;;5097279;28;20204;-40
2023/12/15 10:53:09;;;;;;;6.70;6.10;;;10.90;23.20;;;;;;5096196;28;20469;-43
2023/12/15 10:55:35;;;;;;;8.07;7.27;;;10.90;99.90;;;;;;5088497;28;20453;-41
2023/12/15 10:58:01;;;;;;;8.27;7.40;;;10.80;1.00;;;;;;5099219;28;20471;-44
2023/12/15 11:00:27;;;;;;;9.23;8.17;;;10.80;1.00;;;;;;5099672;28;20429;-40
2023/12/15 11:02:53;;;;;;;7.93;7.13;;;10.90;1.00;;;;;;5114733;28;20433;-42
2023/12/15 11:05:19;;;;;;;7.77;7.07;;;10.90;1.00;;;;;;5097675;28;20431;-41
2023/12/15 11:07:44;;;;;;;9.77;8.60;;;10.90;99.90;;;;;;5115890;28;20474;-41
2023/12/15 11:10:12;;;;;;;9.00;6.87;;;10.90;99.90;;;;;;5098606;28;20715;-41
2023/12/15 11:12:42;;;;;;;6.83;6.13;;;10.90;99.90;;;;;;5116786;28;20258;-45
2023/12/15 11:15:10;;;;;;;8.20;7.30;;;10.80;1.00;;;;;;5099197;28;20676;-40
2023/12/15 11:17:45;;;;;;;7.20;6.20;;;10.80;1.00;;;;;;5099448;28;20465;-44
2023/12/15 11:20:12;;;;;;;7.20;6.07;;;10.90;1.00;;;;;;5117210;28;20787;-41
2023/12/15 11:22:42;;;;;;;6.10;5.53;;;11.10;1.00;;;;;;5115972;28;20405;-40
2023/12/15 11:25:18;;;;;;;7.00;6.20;;;11.50;99.90;;;;;;5080351;28;20496;-44
2023/12/15 11:28:15;;;;;;;7.53;5.83;;;11.90;22.80;;;;;;5116486;28;20520;-42
2023/12/15 11:30:44;;;;;;;7.27;5.07;;;12.60;1.00;;;;;;5099195;28;20425;-42
2023/12/15 11:33:24;;;;;;;5.90;5.40;;;13.30;99.90;;;;;;5116431;28;20608;-42
2023/12/15 11:36:09;;;;;;;6.00;5.37;;;14.10;99.90;;;;;;5115685;28;20517;-41
2023/12/15 11:38:35;;;;;;;5.83;5.00;;;14.60;67.20;;;;;;5097294;28;20459;-41
2023/12/15 11:41:04;;;;;;;7.03;6.10;;;15.00;9.90;;;;;;5114468;28;20443;-40
2023/12/15 11:43:36;;;;;;;7.20;6.50;;;15.30;1.00;;;;;;5115126;28;20509;-48
2023/12/15 11:46:03;;;;;;;7.43;6.63;;;15.70;1.00;;;;;;5115379;28;20417;-44
2023/12/15 11:48:29;;;;;;;6.17;5.57;;;15.80;1.00;;;;;;5114554;28;20422;-43
2023/12/15 11:50:56;;;;;;;6.30;5.70;;;15.60;1.00;;;;;;5115304;28;20478;-41
2023/12/15 11:53:22;;;;;;;5.00;4.50;;;15.50;1.00;;;;;;5113841;28;20513;-40
2023/12/15 11:55:51;;;;;;;5.20;4.70;;;15.30;1.00;;;;;;5114597;28;20463;-40
2023/12/15 11:58:20;;;;;;;5.90;4.60;;;15.20;1.00;;;;;;5098138;28;20198;-39
2023/12/15 12:00:46;;;;;;;5.53;5.03;;;15.20;1.00;;;;;;5115717;28;20512;-41
2023/12/15 12:03:13;;;;;;;5.20;4.70;;;15.30;1.00;;;;;;5082186;28;20895;-42
2023/12/15 12:05:40;;;;;;;4.50;4.10;;;15.50;1.00;;;;;;5094573;28;20430;-41
2023/12/15 12:08:08;;;;;;;4.70;4.30;;;16.30;1.00;;;;;;5114057;28;20913;-40
2023/12/15 12:10:39;;;;;;;5.23;4.70;;;18.10;1.00;;;;;;5096138;28;20464;-43
2023/12/15 12:13:10;;;;;;;4.80;4.30;;;19.30;1.00;;;;;;5094351;28;20484;-40
2023/12/15 12:15:52;;;;;;;6.03;5.43;;;19.60;1.00;;;;;;5075325;28;20529;-40
2023/12/15 12:18:22;;;;;;;4.83;4.43;;;20.20;1.00;;;;;;5057789;28;20434;-40
2023/12/15 12:20:48;;;;;;;4.33;3.90;;;21.40;1.00;;;;;;5075919;28;20487;-50
2023/12/15 12:23:14;;;;;;;5.10;4.47;;;22.30;1.00;;;;;;5090625;28;20430;-42
2023/12/15 12:25:44;;;;;;;5.30;4.80;;;22.10;1.00;;;;;;5091085;28;20773;-42
2023/12/15 12:28:11;;;;;;;4.50;3.40;;;22.20;1.00;;;;;;5059188;28;20669;-43
2023/12/15 12:30:40;;;;;;;5.07;2.87;;;22.00;1.00;;;;;;5075547;28;20447;-43
2023/12/15 12:33:06;;;;;;;3.30;2.60;;;21.70;1.00;;;;;;5074187;28;20482;-41
2023/12/15 12:35:31;;;;;;;5.00;3.60;;;21.30;1.00;;;;;;5073519;28;20453;-41
2023/12/15 12:37:58;;;;;;;3.63;2.80;;;20.20;1.00;;;;;;5093506;28;20386;-41
2023/12/15 12:40:24;;;;;;;3.90;3.50;;;19.40;1.00;;;;;;5072512;28;20276;-40
2023/12/15 12:42:49;;;;;;;5.10;4.00;;;18.50;1.00;;;;;;5089710;28;20521;-40
2023/12/15 12:45:15;;;;;;;4.00;3.20;;;17.70;1.00;;;;;;5092215;28;20376;-39
2023/12/15 12:47:43;;;;;;;4.50;3.13;;;17.00;1.00;;;;;;5102600;28;20543;-40
2023/12/15 12:50:10;;;;;;;3.73;2.53;;;16.50;1.00;;;;;;5094209;28;20191;-40
2023/12/15 12:52:39;;;;;;;4.50;3.60;;;16.00;1.00;;;;;;5092774;28;20482;-41
2023/12/15 12:55:06;;;;;;;3.37;3.07;;;15.40;1.00;;;;;;5092560;28;20500;-40